sensor_id;sensor_type;location;lat;lon;timestamp;pressure;altitude;pressure_sealevel;temperature;humidity
46876;BME280;32866;50.160;14.768;2022-12-29T00:02:15;99119.59;;;3.33;100.00
46876;BME280;32866;50.160;14.768;2022-12-29T00:04:40;99113.63;;;4.16;100.00
46876;BME280;32866;50.160;14.768;2022-12-29T00:07:06;99101.59;;;4.17;100.00
46876;BME280;32866;50.160;14.768;2022-12-29T00:09:32;99108.44;;;4.28;100.00
46876;BME280;32866;50.160;14.768;2022-12-29T00:11:58;99098.94;;;4.51;100.00
46876;BME280;32866;50.160;14.768;2022-12-29T00:14:23;99089.78;;;4.72;100.00
46876;BME280;32866;50.160;14.768;2022-12-29T00:17:07;99085.66;;;4.95;100.00
46876;BME280;32866;50.160;14.768;2022-12-29T00:19:32;99068.34;;;5.12;100.00
46876;BME280;32866;50.160;14.768;2022-12-29T00:22:16;99073.50;;;5.34;100.00
46876;BME280;32866;50.160;14.768;2022-12-29T00:25:01;99072.50;;;5.51;100.00
46876;BME280;32866;50.160;14.768;2022-12-29T00:27:28;99085.56;;;5.60;100.00
46876;BME280;32866;50.160;14.768;2022-12-29T00:30:18;99068.13;;;5.57;100.00
46876;BME280;32866;50.160;14.768;2022-12-29T00:33:13;99079.84;;;5.78;100.00
46876;BME280;32866;50.160;14.768;2022-12-29T00:36:23;99063.28;;;5.69;100.00
46876;BME280;32866;50.160;14.768;2022-12-29T00:38:53;99046.16;;;5.72;100.00
46876;BME280;32866;50.160;14.768;2022-12-29T00:41:38;99074.41;;;5.78;100.00
46876;BME280;32866;50.160;14.768;2022-12-29T00:44:21;99059.16;;;5.84;100.00
46876;BME280;32866;50.160;14.768;2022-12-29T00:46:47;99055.75;;;5.80;100.00
46876;BME280;32866;50.160;14.768;2022-12-29T00:49:13;99074.88;;;6.00;100.00
46876;BME280;32866;50.160;14.768;2022-12-29T00:52:11;99069.56;;;5.89;100.00
46876;BME280;32866;50.160;14.768;2022-12-29T00:54:38;99050.88;;;5.91;100.00
46876;BME280;32866;50.160;14.768;2022-12-29T00:57:06;99038.47;;;5.67;100.00
46876;BME280;32866;50.160;14.768;2022-12-29T00:59:34;99069.84;;;5.99;100.00
46876;BME280;32866;50.160;14.768;2022-12-29T01:02:00;99042.63;;;5.75;100.00
46876;BME280;32866;50.160;14.768;2022-12-29T01:04:26;99058.97;;;5.71;100.00
46876;BME280;32866;50.160;14.768;2022-12-29T01:06:51;99051.94;;;5.74;100.00
46876;BME280;32866;50.160;14.768;2022-12-29T01:09:18;99074.31;;;5.85;100.00
46876;BME280;32866;50.160;14.768;2022-12-29T01:12:07;99058.25;;;5.67;100.00
46876;BME280;32866;50.160;14.768;2022-12-29T01:14:33;99061.56;;;5.55;100.00
46876;BME280;32866;50.160;14.768;2022-12-29T01:16:58;99068.94;;;5.82;100.00
46876;BME280;32866;50.160;14.768;2022-12-29T01:19:24;99065.19;;;5.72;100.00
46876;BME280;32866;50.160;14.768;2022-12-29T01:21:50;99073.63;;;5.78;100.00
46876;BME280;32866;50.160;14.768;2022-12-29T01:24:16;99078.25;;;5.81;100.00
46876;BME280;32866;50.160;14.768;2022-12-29T01:26:43;99052.41;;;5.69;100.00
46876;BME280;32866;50.160;14.768;2022-12-29T01:29:08;99056.63;;;5.73;100.00
46876;BME280;32866;50.160;14.768;2022-12-29T01:31:34;99038.09;;;5.65;100.00
46876;BME280;32866;50.160;14.768;2022-12-29T01:33:59;99041.41;;;5.52;100.00
46876;BME280;32866;50.160;14.768;2022-12-29T01:36:25;99074.16;;;5.69;100.00
46876;BME280;32866;50.160;14.768;2022-12-29T01:38:51;99065.13;;;5.75;100.00
46876;BME280;32866;50.160;14.768;2022-12-29T01:41:16;99027.28;;;5.61;100.00
46876;BME280;32866;50.160;14.768;2022-12-29T01:46:40;99038.09;;;5.65;100.00
46876;BME280;32866;50.160;14.768;2022-12-29T01:51:35;99044.03;;;5.83;100.00
46876;BME280;32866;50.160;14.768;2022-12-29T01:54:05;99032.44;;;5.79;100.00
46876;BME280;32866;50.160;14.768;2022-12-29T01:56:33;99020.13;;;5.94;100.00
46876;BME280;32866;50.160;14.768;2022-12-29T01:59:03;99026.53;;;6.08;100.00
46876;BME280;32866;50.160;14.768;2022-12-29T02:01:29;99040.31;;;6.21;100.00
46876;BME280;32866;50.160;14.768;2022-12-29T02:03:54;99012.44;;;6.13;100.00
46876;BME280;32866;50.160;14.768;2022-12-29T02:06:24;99021.47;;;6.30;100.00
46876;BME280;32866;50.160;14.768;2022-12-29T02:08:53;99023.09;;;6.27;100.00
46876;BME280;32866;50.160;14.768;2022-12-29T02:11:21;98993.97;;;6.24;100.00
46876;BME280;32866;50.160;14.768;2022-12-29T02:13:48;99009.81;;;6.29;100.00
46876;BME280;32866;50.160;14.768;2022-12-29T02:22:05;99018.34;;;6.72;100.00
46876;BME280;32866;50.160;14.768;2022-12-29T02:25:06;99012.97;;;6.68;100.00
46876;BME280;32866;50.160;14.768;2022-12-29T02:27:51;99012.41;;;6.77;100.00
46876;BME280;32866;50.160;14.768;2022-12-29T02:30:40;99010.22;;;6.88;100.00
46876;BME280;32866;50.160;14.768;2022-12-29T02:33:21;99016.38;;;6.92;100.00
46876;BME280;32866;50.160;14.768;2022-12-29T02:38:56;99007.91;;;6.86;100.00
46876;BME280;32866;50.160;14.768;2022-12-29T02:44:09;99006.16;;;6.96;100.00
46876;BME280;32866;50.160;14.768;2022-12-29T02:46:43;99019.13;;;7.09;100.00
46876;BME280;32866;50.160;14.768;2022-12-29T02:52:06;98999.47;;;6.81;100.00
46876;BME280;32866;50.160;14.768;2022-12-29T02:54:32;98990.66;;;6.93;100.00
46876;BME280;32866;50.160;14.768;2022-12-29T02:57:33;98977.00;;;6.77;100.00
46876;BME280;32866;50.160;14.768;2022-12-29T03:00:08;98992.91;;;6.78;100.00
46876;BME280;32866;50.160;14.768;2022-12-29T03:05:59;98988.03;;;6.69;100.00
46876;BME280;32866;50.160;14.768;2022-12-29T03:08:48;98988.38;;;6.72;100.00
46876;BME280;32866;50.160;14.768;2022-12-29T03:11:15;98967.19;;;6.63;100.00
46876;BME280;32866;50.160;14.768;2022-12-29T03:17:08;98972.69;;;6.59;100.00
46876;BME280;32866;50.160;14.768;2022-12-29T03:19:37;98991.34;;;6.61;100.00
46876;BME280;32866;50.160;14.768;2022-12-29T03:22:13;98998.25;;;6.65;100.00
46876;BME280;32866;50.160;14.768;2022-12-29T03:25:04;98994.41;;;6.63;100.00
46876;BME280;32866;50.160;14.768;2022-12-29T03:27:44;98991.50;;;6.54;100.00
46876;BME280;32866;50.160;14.768;2022-12-29T03:30:11;99001.88;;;6.59;100.00
46876;BME280;32866;50.160;14.768;2022-12-29T03:32:42;98971.38;;;6.47;100.00
46876;BME280;32866;50.160;14.768;2022-12-29T03:35:11;98990.63;;;6.57;100.00
46876;BME280;32866;50.160;14.768;2022-12-29T03:37:41;99010.66;;;6.66;100.00
46876;BME280;32866;50.160;14.768;2022-12-29T03:40:08;98992.41;;;6.47;100.00
46876;BME280;32866;50.160;14.768;2022-12-29T03:42:34;98998.53;;;6.51;100.00
46876;BME280;32866;50.160;14.768;2022-12-29T03:45:00;98974.53;;;6.26;100.00
46876;BME280;32866;50.160;14.768;2022-12-29T03:47:26;98988.13;;;6.26;100.00
46876;BME280;32866;50.160;14.768;2022-12-29T03:49:52;99009.91;;;6.46;100.00
46876;BME280;32866;50.160;14.768;2022-12-29T03:52:17;99012.28;;;6.44;100.00
46876;BME280;32866;50.160;14.768;2022-12-29T03:54:43;98996.16;;;6.33;100.00
46876;BME280;32866;50.160;14.768;2022-12-29T03:57:10;99008.09;;;6.59;100.00
46876;BME280;32866;50.160;14.768;2022-12-29T03:59:36;98999.59;;;6.37;100.00
46876;BME280;32866;50.160;14.768;2022-12-29T04:02:01;98973.47;;;6.40;100.00
46876;BME280;32866;50.160;14.768;2022-12-29T04:04:26;98982.75;;;6.62;100.00
46876;BME280;32866;50.160;14.768;2022-12-29T04:06:52;98974.78;;;6.52;100.00
46876;BME280;32866;50.160;14.768;2022-12-29T04:09:17;98972.22;;;6.44;100.00
46876;BME280;32866;50.160;14.768;2022-12-29T04:11:43;98969.22;;;6.59;100.00
46876;BME280;32866;50.160;14.768;2022-12-29T04:14:08;98959.91;;;6.56;100.00
46876;BME280;32866;50.160;14.768;2022-12-29T04:16:33;98963.03;;;6.75;100.00
46876;BME280;32866;50.160;14.768;2022-12-29T04:19:04;98938.97;;;6.53;100.00
46876;BME280;32866;50.160;14.768;2022-12-29T04:21:29;98944.13;;;6.67;100.00
46876;BME280;32866;50.160;14.768;2022-12-29T04:23:55;98937.72;;;6.58;100.00
46876;BME280;32866;50.160;14.768;2022-12-29T04:26:20;98966.72;;;6.84;100.00
46876;BME280;32866;50.160;14.768;2022-12-29T04:28:46;98927.47;;;6.65;100.00
46876;BME280;32866;50.160;14.768;2022-12-29T04:31:11;98945.94;;;6.74;100.00
46876;BME280;32866;50.160;14.768;2022-12-29T04:33:36;98943.13;;;6.78;100.00
46876;BME280;32866;50.160;14.768;2022-12-29T04:36:02;98961.03;;;6.95;100.00
46876;BME280;32866;50.160;14.768;2022-12-29T04:38:27;98948.44;;;7.01;100.00
46876;BME280;32866;50.160;14.768;2022-12-29T04:40:53;98942.81;;;7.09;100.00
46876;BME280;32866;50.160;14.768;2022-12-29T04:43:18;98952.47;;;7.30;100.00
46876;BME280;32866;50.160;14.768;2022-12-29T04:45:45;98967.38;;;7.25;100.00
46876;BME280;32866;50.160;14.768;2022-12-29T04:48:12;98963.38;;;7.30;100.00
46876;BME280;32866;50.160;14.768;2022-12-29T04:50:38;98958.53;;;7.37;100.00
46876;BME280;32866;50.160;14.768;2022-12-29T04:53:04;98937.06;;;7.23;100.00
46876;BME280;32866;50.160;14.768;2022-12-29T04:55:29;98953.94;;;7.34;100.00
46876;BME280;32866;50.160;14.768;2022-12-29T04:57:54;98945.47;;;7.29;100.00
46876;BME280;32866;50.160;14.768;2022-12-29T05:00:20;98933.06;;;7.28;100.00
46876;BME280;32866;50.160;14.768;2022-12-29T05:02:45;98964.13;;;7.47;100.00
46876;BME280;32866;50.160;14.768;2022-12-29T05:05:11;98941.47;;;7.33;100.00
46876;BME280;32866;50.160;14.768;2022-12-29T05:07:36;98941.16;;;7.31;100.00
46876;BME280;32866;50.160;14.768;2022-12-29T05:10:03;98962.94;;;7.48;100.00
46876;BME280;32866;50.160;14.768;2022-12-29T05:12:36;98964.81;;;7.51;100.00
46876;BME280;32866;50.160;14.768;2022-12-29T05:15:02;98957.50;;;7.48;100.00
46876;BME280;32866;50.160;14.768;2022-12-29T05:17:29;98943.13;;;7.31;100.00
46876;BME280;32866;50.160;14.768;2022-12-29T05:19:54;98945.56;;;7.41;100.00
46876;BME280;32866;50.160;14.768;2022-12-29T05:22:20;98948.81;;;7.53;100.00
46876;BME280;32866;50.160;14.768;2022-12-29T05:24:45;98940.03;;;7.45;100.00
46876;BME280;32866;50.160;14.768;2022-12-29T05:27:11;98962.94;;;7.48;100.00
46876;BME280;32866;50.160;14.768;2022-12-29T05:29:36;98954.91;;;7.57;100.00
46876;BME280;32866;50.160;14.768;2022-12-29T05:32:01;98938.25;;;7.38;100.00
46876;BME280;32866;50.160;14.768;2022-12-29T05:34:27;98955.97;;;7.47;100.00
46876;BME280;32866;50.160;14.768;2022-12-29T05:36:53;98959.19;;;7.41;100.00
46876;BME280;32866;50.160;14.768;2022-12-29T05:39:19;98940.44;;;7.27;100.00
46876;BME280;32866;50.160;14.768;2022-12-29T05:41:45;98941.16;;;7.31;100.00
46876;BME280;32866;50.160;14.768;2022-12-29T05:44:11;98925.88;;;7.34;100.00
46876;BME280;32866;50.160;14.768;2022-12-29T05:46:36;98913.19;;;7.27;100.00
46876;BME280;32866;50.160;14.768;2022-12-29T05:49:02;98944.19;;;7.50;100.00
46876;BME280;32866;50.160;14.768;2022-12-29T05:51:27;98921.13;;;7.38;100.00
46876;BME280;32866;50.160;14.768;2022-12-29T05:53:53;98941.72;;;7.55;100.00
46876;BME280;32866;50.160;14.768;2022-12-29T05:56:18;98916.34;;;7.42;100.00
46876;BME280;32866;50.160;14.768;2022-12-29T05:58:44;98919.34;;;7.48;100.00
46876;BME280;32866;50.160;14.768;2022-12-29T06:01:09;98913.03;;;7.51;100.00
46876;BME280;32866;50.160;14.768;2022-12-29T06:03:34;98933.97;;;7.54;100.00
46876;BME280;32866;50.160;14.768;2022-12-29T06:06:00;98939.91;;;7.65;100.00
46876;BME280;32866;50.160;14.768;2022-12-29T06:08:25;98929.84;;;7.62;100.00
46876;BME280;32866;50.160;14.768;2022-12-29T06:10:51;98922.19;;;7.57;100.00
46876;BME280;32866;50.160;14.768;2022-12-29T06:13:16;98921.44;;;7.56;100.00
46876;BME280;32866;50.160;14.768;2022-12-29T06:15:41;98936.16;;;7.75;100.00
46876;BME280;32866;50.160;14.768;2022-12-29T06:18:07;98942.28;;;7.79;100.00
46876;BME280;32866;50.160;14.768;2022-12-29T06:20:33;98945.19;;;7.72;100.00
46876;BME280;32866;50.160;14.768;2022-12-29T06:22:58;98918.53;;;7.64;100.00
46876;BME280;32866;50.160;14.768;2022-12-29T06:25:24;98933.81;;;7.61;100.00
46876;BME280;32866;50.160;14.768;2022-12-29T06:27:49;98942.13;;;7.70;100.00
46876;BME280;32866;50.160;14.768;2022-12-29T06:30:14;98927.66;;;7.57;100.00
46876;BME280;32866;50.160;14.768;2022-12-29T06:32:41;98949.69;;;7.79;100.00
46876;BME280;32866;50.160;14.768;2022-12-29T06:35:06;98944.81;;;7.87;100.00
46876;BME280;32866;50.160;14.768;2022-12-29T06:37:32;98932.91;;;7.64;100.00
46876;BME280;32866;50.160;14.768;2022-12-29T06:39:58;98949.53;;;7.86;100.00
46876;BME280;32866;50.160;14.768;2022-12-29T06:42:24;98928.94;;;7.98;100.00
46876;BME280;32866;50.160;14.768;2022-12-29T06:44:49;98917.22;;;7.85;100.00
46876;BME280;32866;50.160;14.768;2022-12-29T06:47:15;98932.38;;;7.86;100.00
46876;BME280;32866;50.160;14.768;2022-12-29T06:49:40;98927.94;;;7.92;100.00
46876;BME280;32866;50.160;14.768;2022-12-29T06:52:06;98931.09;;;7.90;100.00
46876;BME280;32866;50.160;14.768;2022-12-29T06:54:31;98948.44;;;8.13;100.00
46876;BME280;32866;50.160;14.768;2022-12-29T06:56:57;98959.38;;;8.26;100.00
46876;BME280;32866;50.160;14.768;2022-12-29T06:59:23;98942.50;;;8.02;100.00
46876;BME280;32866;50.160;14.768;2022-12-29T07:01:49;98938.38;;;8.10;100.00
46876;BME280;32866;50.160;14.768;2022-12-29T07:04:15;98958.91;;;8.14;100.00
46876;BME280;32866;50.160;14.768;2022-12-29T07:06:40;98949.72;;;8.08;100.00
46876;BME280;32866;50.160;14.768;2022-12-29T07:09:07;98967.19;;;8.11;100.00
46876;BME280;32866;50.160;14.768;2022-12-29T07:11:32;98955.28;;;8.05;100.00
46876;BME280;32866;50.160;14.768;2022-12-29T07:13:58;98963.03;;;8.06;100.00
46876;BME280;32866;50.160;14.768;2022-12-29T07:16:23;98946.31;;;8.04;100.00
46876;BME280;32866;50.160;14.768;2022-12-29T07:18:49;98950.13;;;8.07;100.00
46876;BME280;32866;50.160;14.768;2022-12-29T07:21:15;98959.13;;;7.91;100.00
46876;BME280;32866;50.160;14.768;2022-12-29T07:23:40;98955.53;;;7.94;100.00
46876;BME280;32866;50.160;14.768;2022-12-29T07:26:07;98950.94;;;7.91;100.00
46876;BME280;32866;50.160;14.768;2022-12-29T07:28:34;98970.78;;;8.08;100.00
46876;BME280;32866;50.160;14.768;2022-12-29T07:31:00;98947.13;;;7.88;100.00
46876;BME280;32866;50.160;14.768;2022-12-29T07:33:28;98971.13;;;8.10;100.00
46876;BME280;32866;50.160;14.768;2022-12-29T07:35:54;98945.84;;;7.93;100.00
46876;BME280;32866;50.160;14.768;2022-12-29T07:38:20;98971.13;;;8.10;100.00
46876;BME280;32866;50.160;14.768;2022-12-29T07:40:45;98940.91;;;7.88;100.00
46876;BME280;32866;50.160;14.768;2022-12-29T07:43:10;98928.97;;;7.82;100.00
46876;BME280;32866;50.160;14.768;2022-12-29T07:45:36;98953.34;;;7.89;100.00
46876;BME280;32866;50.160;14.768;2022-12-29T07:48:01;98971.44;;;7.83;100.00
46876;BME280;32866;50.160;14.768;2022-12-29T07:50:27;98955.25;;;7.75;100.00
46876;BME280;32866;50.160;14.768;2022-12-29T07:52:53;98935.16;;;7.69;100.00
46876;BME280;32866;50.160;14.768;2022-12-29T07:55:19;98930.56;;;7.66;100.00
46876;BME280;32866;50.160;14.768;2022-12-29T07:57:44;98957.44;;;7.80;100.00
46876;BME280;32866;50.160;14.768;2022-12-29T08:00:10;98952.50;;;7.75;100.00
46876;BME280;32866;50.160;14.768;2022-12-29T08:02:39;98970.28;;;7.96;100.00
46876;BME280;32866;50.160;14.768;2022-12-29T08:05:04;98980.19;;;7.90;100.00
46876;BME280;32866;50.160;14.768;2022-12-29T08:07:30;98970.41;;;7.93;100.00
46876;BME280;32866;50.160;14.768;2022-12-29T08:09:55;98966.56;;;7.90;100.00
46876;BME280;32866;50.160;14.768;2022-12-29T08:12:24;98947.03;;;7.92;100.00
46876;BME280;32866;50.160;14.768;2022-12-29T08:14:50;98955.63;;;7.90;100.00
46876;BME280;32866;50.160;14.768;2022-12-29T08:17:15;98945.56;;;7.87;100.00
46876;BME280;32866;50.160;14.768;2022-12-29T08:19:40;98949.53;;;7.86;100.00
46876;BME280;32866;50.160;14.768;2022-12-29T08:22:07;98955.84;;;7.83;100.00
46876;BME280;32866;50.160;14.768;2022-12-29T08:24:33;98969.34;;;8.03;100.00
46876;BME280;32866;50.160;14.768;2022-12-29T08:26:58;98964.06;;;7.96;100.00
46876;BME280;32866;50.160;14.768;2022-12-29T08:29:24;98971.56;;;7.92;100.00
46876;BME280;32866;50.160;14.768;2022-12-29T08:31:49;98977.53;;;8.03;100.00
46876;BME280;32866;50.160;14.768;2022-12-29T08:34:14;98971.13;;;8.10;100.00
46876;BME280;32866;50.160;14.768;2022-12-29T08:36:40;98957.31;;;8.30;100.00
46876;BME280;32866;50.160;14.768;2022-12-29T08:39:05;98934.53;;;8.07;100.00
46876;BME280;32866;50.160;14.768;2022-12-29T08:41:32;98943.03;;;8.09;100.00
46876;BME280;32866;50.160;14.768;2022-12-29T08:43:58;98966.56;;;8.20;100.00
46876;BME280;32866;50.160;14.768;2022-12-29T08:46:44;98976.13;;;8.41;100.00
46876;BME280;32866;50.160;14.768;2022-12-29T08:49:10;98986.28;;;8.40;100.00
46876;BME280;32866;50.160;14.768;2022-12-29T08:51:36;98958.72;;;8.22;100.00
46876;BME280;32866;50.160;14.768;2022-12-29T08:54:02;98983.88;;;8.42;100.00
46876;BME280;32866;50.160;14.768;2022-12-29T08:56:28;98979.22;;;8.43;100.00
46876;BME280;32866;50.160;14.768;2022-12-29T08:58:54;98972.19;;;8.42;100.00
46876;BME280;32866;50.160;14.768;2022-12-29T09:01:20;98941.03;;;8.26;100.00
46876;BME280;32866;50.160;14.768;2022-12-29T09:03:45;98965.81;;;8.48;100.00
46876;BME280;32866;50.160;14.768;2022-12-29T09:06:11;98954.63;;;8.43;100.00
46876;BME280;32866;50.160;14.768;2022-12-29T09:08:37;98965.81;;;8.48;100.00
46876;BME280;32866;50.160;14.768;2022-12-29T09:13:41;98966.69;;;8.71;100.00
46876;BME280;32866;50.160;14.768;2022-12-29T09:16:07;98975.91;;;8.77;100.00
46876;BME280;32866;50.160;14.768;2022-12-29T09:18:33;98969.56;;;8.80;100.00
46876;BME280;32866;50.160;14.768;2022-12-29T09:21:00;98981.81;;;8.88;100.00
46876;BME280;32866;50.160;14.768;2022-12-29T09:23:26;98986.94;;;8.99;100.00
46876;BME280;32866;50.160;14.768;2022-12-29T09:25:52;98977.00;;;8.93;100.00
46876;BME280;32866;50.160;14.768;2022-12-29T09:28:17;98970.56;;;8.99;100.00
46876;BME280;32866;50.160;14.768;2022-12-29T09:30:43;98975.06;;;9.19;100.00
46876;BME280;32866;50.160;14.768;2022-12-29T09:33:08;98986.41;;;9.17;100.00
46876;BME280;32866;50.160;14.768;2022-12-29T09:35:34;98978.00;;;9.37;100.00
46876;BME280;32866;50.160;14.768;2022-12-29T09:37:59;98978.22;;;9.30;100.00
46876;BME280;32866;50.160;14.768;2022-12-29T09:40:28;98940.25;;;9.19;100.00
46876;BME280;32866;50.160;14.768;2022-12-29T09:48:27;98934.53;;;9.52;100.00
46876;BME280;32866;50.160;14.768;2022-12-29T09:50:58;98976.06;;;9.73;100.00
46876;BME280;32866;50.160;14.768;2022-12-29T09:55:53;98964.44;;;9.81;100.00
46876;BME280;32866;50.160;14.768;2022-12-29T09:58:52;98962.22;;;9.89;100.00
46876;BME280;32866;50.160;14.768;2022-12-29T10:03:53;98945.81;;;9.89;100.00
46876;BME280;32866;50.160;14.768;2022-12-29T10:06:24;98957.91;;;10.01;100.00
46876;BME280;32866;50.160;14.768;2022-12-29T10:09:30;98952.31;;;10.05;100.00
46876;BME280;32866;50.160;14.768;2022-12-29T10:12:15;98955.47;;;10.03;100.00
46876;BME280;32866;50.160;14.768;2022-12-29T10:17:31;98948.69;;;10.08;100.00
46876;BME280;32866;50.160;14.768;2022-12-29T10:25:46;98937.09;;;10.26;100.00
46876;BME280;32866;50.160;14.768;2022-12-29T10:28:23;98937.84;;;10.26;100.00
46876;BME280;32866;50.160;14.768;2022-12-29T10:30:49;98922.41;;;10.32;100.00
46876;BME280;32866;50.160;14.768;2022-12-29T10:33:23;98921.88;;;10.47;100.00
46876;BME280;32866;50.160;14.768;2022-12-29T10:35:51;98916.53;;;10.43;100.00
46876;BME280;32866;50.160;14.768;2022-12-29T10:38:34;98919.06;;;10.60;100.00
46876;BME280;32866;50.160;14.768;2022-12-29T10:41:08;98918.03;;;10.66;100.00
46876;BME280;32866;50.160;14.768;2022-12-29T10:43:56;98912.69;;;10.63;100.00
46876;BME280;32866;50.160;14.768;2022-12-29T10:46:29;98910.84;;;10.60;100.00
46876;BME280;32866;50.160;14.768;2022-12-29T10:48:56;98899.44;;;10.61;100.00
46876;BME280;32866;50.160;14.768;2022-12-29T10:51:28;98912.41;;;10.70;100.00
46876;BME280;32866;50.160;14.768;2022-12-29T10:54:01;98895.47;;;10.62;100.00
46876;BME280;32866;50.160;14.768;2022-12-29T10:56:40;98901.28;;;10.64;100.00
46876;BME280;32866;50.160;14.768;2022-12-29T10:59:20;98908.56;;;10.67;100.00
46876;BME280;32866;50.160;14.768;2022-12-29T11:02:09;98902.19;;;10.70;100.00
46876;BME280;32866;50.160;14.768;2022-12-29T11:07:11;98885.31;;;10.72;100.00
46876;BME280;32866;50.160;14.768;2022-12-29T11:09:39;98865.91;;;10.57;100.00
46876;BME280;32866;50.160;14.768;2022-12-29T11:12:27;98876.69;;;10.83;100.00
46876;BME280;32866;50.160;14.768;2022-12-29T11:15:13;98868.47;;;10.83;100.00
46876;BME280;32866;50.160;14.768;2022-12-29T11:17:50;98842.06;;;10.67;100.00
46876;BME280;32866;50.160;14.768;2022-12-29T11:20:30;98846.66;;;10.79;100.00
46876;BME280;32866;50.160;14.768;2022-12-29T11:22:56;98847.44;;;10.89;100.00
46876;BME280;32866;50.160;14.768;2022-12-29T11:25:22;98861.97;;;11.08;100.00
46876;BME280;32866;50.160;14.768;2022-12-29T11:28:15;98855.00;;;11.16;100.00
46876;BME280;32866;50.160;14.768;2022-12-29T11:30:42;98858.91;;;11.06;100.00
46876;BME280;32866;50.160;14.768;2022-12-29T11:33:08;98850.25;;;11.17;100.00
46876;BME280;32866;50.160;14.768;2022-12-29T11:35:36;98863.09;;;11.57;100.00
46876;BME280;32866;50.160;14.768;2022-12-29T11:38:04;98838.22;;;11.69;99.38
46876;BME280;32866;50.160;14.768;2022-12-29T11:40:30;98841.44;;;11.86;96.33
46876;BME280;32866;50.160;14.768;2022-12-29T11:43:00;98854.84;;;12.12;95.63
46876;BME280;32866;50.160;14.768;2022-12-29T11:45:33;98860.03;;;11.82;96.77
46876;BME280;32866;50.160;14.768;2022-12-29T11:48:01;98863.53;;;12.01;96.70
46876;BME280;32866;50.160;14.768;2022-12-29T11:50:32;98863.53;;;12.11;96.84
46876;BME280;32866;50.160;14.768;2022-12-29T11:53:07;98825.59;;;12.00;96.35
46876;BME280;32866;50.160;14.768;2022-12-29T11:55:39;98862.00;;;12.19;96.21
46876;BME280;32866;50.160;14.768;2022-12-29T11:58:04;98849.34;;;12.12;97.07
46876;BME280;32866;50.160;14.768;2022-12-29T12:00:32;98862.78;;;12.01;98.33
46876;BME280;32866;50.160;14.768;2022-12-29T12:03:02;98840.84;;;11.64;100.00
46876;BME280;32866;50.160;14.768;2022-12-29T12:06:12;98853.63;;;11.58;100.00
46876;BME280;32866;50.160;14.768;2022-12-29T12:08:47;98823.16;;;11.28;100.00
46876;BME280;32866;50.160;14.768;2022-12-29T12:11:17;98833.66;;;11.20;100.00
46876;BME280;32866;50.160;14.768;2022-12-29T12:16:18;98828.66;;;11.28;100.00
46876;BME280;32866;50.160;14.768;2022-12-29T12:18:49;98849.06;;;11.73;98.80
46876;BME280;32866;50.160;14.768;2022-12-29T12:21:34;98853.59;;;12.22;98.77
46876;BME280;32866;50.160;14.768;2022-12-29T12:29:43;98862.94;;;12.92;99.89
46876;BME280;32866;50.160;14.768;2022-12-29T12:32:17;98857.09;;;12.99;95.70
46876;BME280;32866;50.160;14.768;2022-12-29T12:34:46;98848.72;;;13.17;94.36
46876;BME280;32866;50.160;14.768;2022-12-29T12:37:39;98847.09;;;13.11;89.78
46876;BME280;32866;50.160;14.768;2022-12-29T12:48:18;98836.41;;;12.03;90.27
46876;BME280;32866;50.160;14.768;2022-12-29T12:51:15;98843.28;;;11.80;91.11
46876;BME280;32866;50.160;14.768;2022-12-29T12:56:50;98836.72;;;11.68;93.47
46876;BME280;32866;50.160;14.768;2022-12-29T12:59:41;98815.53;;;11.32;96.64
46876;BME280;32866;50.160;14.768;2022-12-29T13:02:15;98820.88;;;11.26;97.06
46876;BME280;32866;50.160;14.768;2022-12-29T13:05:09;98824.97;;;11.22;96.17
46876;BME280;32866;50.160;14.768;2022-12-29T13:18:37;98823.28;;;11.15;95.18
46876;BME280;32866;50.160;14.768;2022-12-29T13:24:14;98826.78;;;11.06;95.53
46876;BME280;32866;50.160;14.768;2022-12-29T13:26:49;98818.25;;;11.04;95.57
46876;BME280;32866;50.160;14.768;2022-12-29T13:29:34;98836.53;;;11.07;94.39
46876;BME280;32866;50.160;14.768;2022-12-29T13:38:12;98832.91;;;11.20;93.59
46876;BME280;32866;50.160;14.768;2022-12-29T13:40:48;98843.88;;;11.20;93.95
46876;BME280;32866;50.160;14.768;2022-12-29T13:43:15;98838.38;;;11.10;95.66
46876;BME280;32866;50.160;14.768;2022-12-29T13:45:42;98839.75;;;11.15;94.39
46876;BME280;32866;50.160;14.768;2022-12-29T13:50:36;98816.84;;;10.90;94.98
46876;BME280;32866;50.160;14.768;2022-12-29T13:58:44;98845.25;;;10.65;99.90
46876;BME280;32866;50.160;14.768;2022-12-29T14:01:31;98855.03;;;10.75;99.53
46876;BME280;32866;50.160;14.768;2022-12-29T14:04:00;98852.53;;;10.59;100.00
46876;BME280;32866;50.160;14.768;2022-12-29T14:06:32;98839.22;;;10.39;100.00
46876;BME280;32866;50.160;14.768;2022-12-29T14:09:02;98857.69;;;10.57;100.00
46876;BME280;32866;50.160;14.768;2022-12-29T14:14:10;98862.88;;;10.55;100.00
46876;BME280;32866;50.160;14.768;2022-12-29T14:16:37;98867.84;;;10.47;100.00
46876;BME280;32866;50.160;14.768;2022-12-29T14:19:12;98852.06;;;10.29;100.00
46876;BME280;32866;50.160;14.768;2022-12-29T14:21:39;98861.50;;;10.28;100.00
46876;BME280;32866;50.160;14.768;2022-12-29T14:27:00;98859.66;;;10.25;100.00
46876;BME280;32866;50.160;14.768;2022-12-29T14:31:52;98877.09;;;10.40;100.00
46876;BME280;32866;50.160;14.768;2022-12-29T14:46:00;98876.28;;;10.09;100.00
46876;BME280;32866;50.160;14.768;2022-12-29T14:48:44;98873.50;;;9.99;100.00
46876;BME280;32866;50.160;14.768;2022-12-29T14:51:21;98890.38;;;9.98;100.00
46876;BME280;32866;50.160;14.768;2022-12-29T14:53:52;98868.66;;;9.81;100.00
46876;BME280;32866;50.160;14.768;2022-12-29T14:56:23;98864.59;;;9.86;100.00
46876;BME280;32866;50.160;14.768;2022-12-29T14:58:54;98881.41;;;9.97;100.00
46876;BME280;32866;50.160;14.768;2022-12-29T15:01:38;98892.56;;;9.90;100.00